sensor_id;sensor_type;location;lat;lon;timestamp;P1;durP1;ratioP1;P2;durP2;ratioP2
6111;SDS011;3086;48.802;9.394;2023-01-29T00:03:17;12.07;;;9.80;;
6111;SDS011;3086;48.802;9.394;2023-01-29T00:06:38;13.23;;;9.27;;
6111;SDS011;3086;48.802;9.394;2023-01-29T00:10:00;11.47;;;10.23;;
6111;SDS011;3086;48.802;9.394;2023-01-29T00:13:21;11.57;;;9.50;;
6111;SDS011;3086;48.802;9.394;2023-01-29T00:16:43;10.20;;;8.90;;
6111;SDS011;3086;48.802;9.394;2023-01-29T00:20:06;10.97;;;9.73;;
6111;SDS011;3086;48.802;9.394;2023-01-29T00:23:28;10.57;;;9.47;;
6111;SDS011;3086;48.802;9.394;2023-01-29T00:26:50;9.63;;;8.63;;
6111;SDS011;3086;48.802;9.394;2023-01-29T00:30:12;9.47;;;8.57;;
6111;SDS011;3086;48.802;9.394;2023-01-29T00:33:38;11.43;;;9.97;;
6111;SDS011;3086;48.802;9.394;2023-01-29T00:37:01;11.60;;;9.70;;
6111;SDS011;3086;48.802;9.394;2023-01-29T00:40:28;10.40;;;9.20;;
6111;SDS011;3086;48.802;9.394;2023-01-29T00:44:09;11.27;;;8.93;;
6111;SDS011;3086;48.802;9.394;2023-01-29T00:47:48;10.23;;;8.83;;
6111;SDS011;3086;48.802;9.394;2023-01-29T00:51:09;11.07;;;9.87;;
6111;SDS011;3086;48.802;9.394;2023-01-29T00:54:32;10.67;;;8.47;;
6111;SDS011;3086;48.802;9.394;2023-01-29T00:57:54;11.70;;;9.50;;
6111;SDS011;3086;48.802;9.394;2023-01-29T01:01:15;10.40;;;9.30;;
6111;SDS011;3086;48.802;9.394;2023-01-29T01:04:57;10.00;;;8.53;;
6111;SDS011;3086;48.802;9.394;2023-01-29T01:08:18;10.23;;;9.17;;
6111;SDS011;3086;48.802;9.394;2023-01-29T01:11:58;8.73;;;7.80;;
6111;SDS011;3086;48.802;9.394;2023-01-29T01:15:20;11.83;;;8.77;;
6111;SDS011;3086;48.802;9.394;2023-01-29T01:18:42;10.00;;;8.70;;
6111;SDS011;3086;48.802;9.394;2023-01-29T01:22:04;8.93;;;8.03;;
6111;SDS011;3086;48.802;9.394;2023-01-29T01:25:26;9.00;;;8.10;;
6111;SDS011;3086;48.802;9.394;2023-01-29T01:28:48;9.50;;;8.00;;
6111;SDS011;3086;48.802;9.394;2023-01-29T01:32:10;8.87;;;8.00;;
6111;SDS011;3086;48.802;9.394;2023-01-29T01:35:31;9.60;;;7.73;;
6111;SDS011;3086;48.802;9.394;2023-01-29T01:38:53;10.77;;;8.13;;
6111;SDS011;3086;48.802;9.394;2023-01-29T01:42:14;9.37;;;8.37;;
6111;SDS011;3086;48.802;9.394;2023-01-29T01:45:37;8.00;;;7.20;;
6111;SDS011;3086;48.802;9.394;2023-01-29T01:49:00;8.63;;;7.63;;
6111;SDS011;3086;48.802;9.394;2023-01-29T01:52:24;9.00;;;7.93;;
6111;SDS011;3086;48.802;9.394;2023-01-29T01:55:47;8.87;;;8.07;;
6111;SDS011;3086;48.802;9.394;2023-01-29T01:59:11;8.60;;;7.67;;
6111;SDS011;3086;48.802;9.394;2023-01-29T02:02:35;8.80;;;7.90;;
6111;SDS011;3086;48.802;9.394;2023-01-29T02:06:15;9.97;;;8.00;;
6111;SDS011;3086;48.802;9.394;2023-01-29T02:09:55;11.63;;;8.17;;
6111;SDS011;3086;48.802;9.394;2023-01-29T02:13:25;10.40;;;8.07;;
6111;SDS011;3086;48.802;9.394;2023-01-29T02:16:46;8.53;;;7.70;;
6111;SDS011;3086;48.802;9.394;2023-01-29T02:20:11;8.93;;;8.13;;
6111;SDS011;3086;48.802;9.394;2023-01-29T02:23:45;8.87;;;7.97;;
6111;SDS011;3086;48.802;9.394;2023-01-29T02:27:18;10.43;;;8.23;;
6111;SDS011;3086;48.802;9.394;2023-01-29T02:30:43;8.37;;;7.57;;
6111;SDS011;3086;48.802;9.394;2023-01-29T02:34:07;11.60;;;8.23;;
6111;SDS011;3086;48.802;9.394;2023-01-29T02:37:35;9.50;;;8.20;;
6111;SDS011;3086;48.802;9.394;2023-01-29T02:41:00;8.87;;;7.80;;
6111;SDS011;3086;48.802;9.394;2023-01-29T02:44:26;10.97;;;8.00;;
6111;SDS011;3086;48.802;9.394;2023-01-29T02:47:54;9.50;;;8.53;;
6111;SDS011;3086;48.802;9.394;2023-01-29T02:51:18;11.57;;;9.10;;
6111;SDS011;3086;48.802;9.394;2023-01-29T02:54:42;11.57;;;8.47;;
6111;SDS011;3086;48.802;9.394;2023-01-29T02:58:08;11.30;;;8.33;;
6111;SDS011;3086;48.802;9.394;2023-01-29T03:01:34;9.47;;;8.53;;
6111;SDS011;3086;48.802;9.394;2023-01-29T03:05:00;9.00;;;7.33;;
6111;SDS011;3086;48.802;9.394;2023-01-29T03:08:27;9.83;;;8.03;;
6111;SDS011;3086;48.802;9.394;2023-01-29T03:11:58;9.37;;;8.23;;
6111;SDS011;3086;48.802;9.394;2023-01-29T03:15:38;8.83;;;7.80;;
6111;SDS011;3086;48.802;9.394;2023-01-29T03:19:02;9.00;;;8.10;;
6111;SDS011;3086;48.802;9.394;2023-01-29T03:22:27;9.83;;;8.33;;
6111;SDS011;3086;48.802;9.394;2023-01-29T03:25:50;8.20;;;6.97;;
6111;SDS011;3086;48.802;9.394;2023-01-29T03:29:30;9.77;;;7.27;;
6111;SDS011;3086;48.802;9.394;2023-01-29T03:33:10;9.23;;;7.53;;
6111;SDS011;3086;48.802;9.394;2023-01-29T03:36:33;8.77;;;7.33;;
6111;SDS011;3086;48.802;9.394;2023-01-29T03:40:00;9.20;;;8.30;;
6111;SDS011;3086;48.802;9.394;2023-01-29T03:43:24;9.53;;;8.40;;
6111;SDS011;3086;48.802;9.394;2023-01-29T03:46:53;8.27;;;7.13;;
6111;SDS011;3086;48.802;9.394;2023-01-29T03:50:20;7.90;;;7.10;;
6111;SDS011;3086;48.802;9.394;2023-01-29T03:53:52;8.83;;;7.70;;
6111;SDS011;3086;48.802;9.394;2023-01-29T03:57:19;7.73;;;6.93;;
6111;SDS011;3086;48.802;9.394;2023-01-29T04:00:51;9.77;;;8.03;;
6111;SDS011;3086;48.802;9.394;2023-01-29T04:04:16;9.53;;;8.40;;
6111;SDS011;3086;48.802;9.394;2023-01-29T04:07:40;8.83;;;7.90;;
6111;SDS011;3086;48.802;9.394;2023-01-29T04:11:04;8.37;;;7.57;;
6111;SDS011;3086;48.802;9.394;2023-01-29T04:14:30;10.73;;;8.20;;
6111;SDS011;3086;48.802;9.394;2023-01-29T04:17:52;9.63;;;8.20;;
6111;SDS011;3086;48.802;9.394;2023-01-29T04:21:16;9.17;;;7.10;;
6111;SDS011;3086;48.802;9.394;2023-01-29T04:24:38;8.17;;;7.27;;
6111;SDS011;3086;48.802;9.394;2023-01-29T04:28:03;11.47;;;7.60;;
6111;SDS011;3086;48.802;9.394;2023-01-29T04:31:30;8.43;;;7.53;;
6111;SDS011;3086;48.802;9.394;2023-01-29T04:34:59;8.43;;;7.47;;
6111;SDS011;3086;48.802;9.394;2023-01-29T04:38:23;10.33;;;7.50;;
6111;SDS011;3086;48.802;9.394;2023-01-29T04:41:51;8.47;;;7.17;;
6111;SDS011;3086;48.802;9.394;2023-01-29T04:45:16;9.67;;;8.03;;
6111;SDS011;3086;48.802;9.394;2023-01-29T04:48:44;11.13;;;7.93;;
6111;SDS011;3086;48.802;9.394;2023-01-29T04:52:13;9.60;;;7.83;;
6111;SDS011;3086;48.802;9.394;2023-01-29T04:55:38;8.90;;;7.83;;
6111;SDS011;3086;48.802;9.394;2023-01-29T04:59:02;8.60;;;7.70;;
6111;SDS011;3086;48.802;9.394;2023-01-29T05:02:25;9.47;;;7.67;;
6111;SDS011;3086;48.802;9.394;2023-01-29T05:05:48;8.60;;;7.70;;
6111;SDS011;3086;48.802;9.394;2023-01-29T05:09:11;9.00;;;7.07;;
6111;SDS011;3086;48.802;9.394;2023-01-29T05:12:33;8.73;;;7.70;;
6111;SDS011;3086;48.802;9.394;2023-01-29T05:15:56;9.20;;;8.30;;
6111;SDS011;3086;48.802;9.394;2023-01-29T05:19:20;9.17;;;7.93;;
6111;SDS011;3086;48.802;9.394;2023-01-29T05:22:43;10.40;;;7.83;;
6111;SDS011;3086;48.802;9.394;2023-01-29T05:26:05;9.07;;;7.63;;
6111;SDS011;3086;48.802;9.394;2023-01-29T05:29:27;11.13;;;8.57;;
6111;SDS011;3086;48.802;9.394;2023-01-29T05:32:47;11.77;;;8.20;;
6111;SDS011;3086;48.802;9.394;2023-01-29T05:36:09;11.13;;;8.37;;
6111;SDS011;3086;48.802;9.394;2023-01-29T05:39:32;12.30;;;8.17;;
6111;SDS011;3086;48.802;9.394;2023-01-29T05:42:53;10.67;;;8.07;;
6111;SDS011;3086;48.802;9.394;2023-01-29T05:46:15;11.50;;;8.67;;
6111;SDS011;3086;48.802;9.394;2023-01-29T05:49:36;10.80;;;9.03;;
6111;SDS011;3086;48.802;9.394;2023-01-29T05:52:58;11.13;;;8.63;;
6111;SDS011;3086;48.802;9.394;2023-01-29T05:56:21;10.63;;;8.30;;
6111;SDS011;3086;48.802;9.394;2023-01-29T05:59:44;10.67;;;8.10;;
6111;SDS011;3086;48.802;9.394;2023-01-29T06:03:05;9.83;;;8.13;;
6111;SDS011;3086;48.802;9.394;2023-01-29T06:06:27;10.00;;;7.97;;
6111;SDS011;3086;48.802;9.394;2023-01-29T06:09:48;10.30;;;8.27;;
6111;SDS011;3086;48.802;9.394;2023-01-29T06:13:11;10.70;;;8.63;;
6111;SDS011;3086;48.802;9.394;2023-01-29T06:16:33;9.33;;;8.33;;
6111;SDS011;3086;48.802;9.394;2023-01-29T06:19:54;12.10;;;8.33;;
6111;SDS011;3086;48.802;9.394;2023-01-29T06:23:17;11.03;;;8.73;;
6111;SDS011;3086;48.802;9.394;2023-01-29T06:26:38;9.43;;;8.27;;
6111;SDS011;3086;48.802;9.394;2023-01-29T06:30:01;11.70;;;8.60;;
6111;SDS011;3086;48.802;9.394;2023-01-29T06:33:23;10.47;;;9.27;;
6111;SDS011;3086;48.802;9.394;2023-01-29T06:36:44;10.60;;;8.63;;
6111;SDS011;3086;48.802;9.394;2023-01-29T06:40:06;9.57;;;7.93;;
6111;SDS011;3086;48.802;9.394;2023-01-29T06:43:28;10.07;;;8.10;;
6111;SDS011;3086;48.802;9.394;2023-01-29T06:46:51;10.93;;;8.67;;
6111;SDS011;3086;48.802;9.394;2023-01-29T06:50:12;9.73;;;8.63;;
6111;SDS011;3086;48.802;9.394;2023-01-29T06:53:34;10.67;;;7.80;;
6111;SDS011;3086;48.802;9.394;2023-01-29T06:56:57;11.07;;;8.07;;
6111;SDS011;3086;48.802;9.394;2023-01-29T07:00:18;11.80;;;9.03;;
6111;SDS011;3086;48.802;9.394;2023-01-29T07:03:42;10.50;;;8.60;;
6111;SDS011;3086;48.802;9.394;2023-01-29T07:07:03;11.83;;;8.87;;
6111;SDS011;3086;48.802;9.394;2023-01-29T07:10:31;10.53;;;8.73;;
6111;SDS011;3086;48.802;9.394;2023-01-29T07:13:53;16.03;;;9.33;;
6111;SDS011;3086;48.802;9.394;2023-01-29T07:17:14;12.70;;;9.57;;
6111;SDS011;3086;48.802;9.394;2023-01-29T07:20:38;9.40;;;8.37;;
6111;SDS011;3086;48.802;9.394;2023-01-29T07:24:00;10.03;;;8.23;;
6111;SDS011;3086;48.802;9.394;2023-01-29T07:27:22;10.87;;;8.53;;
6111;SDS011;3086;48.802;9.394;2023-01-29T07:30:43;10.83;;;8.73;;
6111;SDS011;3086;48.802;9.394;2023-01-29T07:34:05;10.37;;;9.27;;
6111;SDS011;3086;48.802;9.394;2023-01-29T07:37:28;11.00;;;9.40;;
6111;SDS011;3086;48.802;9.394;2023-01-29T07:40:50;10.87;;;9.53;;
6111;SDS011;3086;48.802;9.394;2023-01-29T07:44:12;10.93;;;8.53;;
6111;SDS011;3086;48.802;9.394;2023-01-29T07:47:33;9.80;;;8.80;;
6111;SDS011;3086;48.802;9.394;2023-01-29T07:50:55;13.63;;;9.53;;
6111;SDS011;3086;48.802;9.394;2023-01-29T07:54:18;15.50;;;9.03;;
6111;SDS011;3086;48.802;9.394;2023-01-29T07:57:40;15.20;;;9.07;;
6111;SDS011;3086;48.802;9.394;2023-01-29T08:01:03;11.10;;;9.07;;
6111;SDS011;3086;48.802;9.394;2023-01-29T08:04:25;11.33;;;9.23;;
6111;SDS011;3086;48.802;9.394;2023-01-29T08:07:51;10.50;;;9.23;;
6111;SDS011;3086;48.802;9.394;2023-01-29T08:11:15;11.03;;;9.23;;
6111;SDS011;3086;48.802;9.394;2023-01-29T08:14:36;10.33;;;9.13;;
6111;SDS011;3086;48.802;9.394;2023-01-29T08:17:59;11.80;;;8.73;;
6111;SDS011;3086;48.802;9.394;2023-01-29T08:21:21;11.80;;;8.93;;
6111;SDS011;3086;48.802;9.394;2023-01-29T08:24:42;9.30;;;8.03;;
6111;SDS011;3086;48.802;9.394;2023-01-29T08:28:05;10.67;;;8.70;;
6111;SDS011;3086;48.802;9.394;2023-01-29T08:31:27;11.20;;;8.43;;
6111;SDS011;3086;48.802;9.394;2023-01-29T08:34:49;11.27;;;8.80;;
6111;SDS011;3086;48.802;9.394;2023-01-29T08:38:10;10.17;;;8.77;;
6111;SDS011;3086;48.802;9.394;2023-01-29T08:41:32;12.63;;;9.27;;
6111;SDS011;3086;48.802;9.394;2023-01-29T08:44:54;10.77;;;8.70;;
6111;SDS011;3086;48.802;9.394;2023-01-29T08:48:16;10.50;;;8.53;;
6111;SDS011;3086;48.802;9.394;2023-01-29T08:51:37;9.50;;;8.50;;
6111;SDS011;3086;48.802;9.394;2023-01-29T08:54:59;11.30;;;8.70;;
6111;SDS011;3086;48.802;9.394;2023-01-29T08:58:20;10.57;;;8.83;;
6111;SDS011;3086;48.802;9.394;2023-01-29T09:01:43;13.63;;;10.27;;
6111;SDS011;3086;48.802;9.394;2023-01-29T09:05:05;19.27;;;12.13;;
6111;SDS011;3086;48.802;9.394;2023-01-29T09:08:27;10.93;;;9.00;;
6111;SDS011;3086;48.802;9.394;2023-01-29T09:11:49;10.37;;;8.37;;
6111;SDS011;3086;48.802;9.394;2023-01-29T09:15:10;15.47;;;12.00;;
6111;SDS011;3086;48.802;9.394;2023-01-29T09:18:33;9.67;;;8.67;;
6111;SDS011;3086;48.802;9.394;2023-01-29T09:21:55;10.07;;;9.07;;
6111;SDS011;3086;48.802;9.394;2023-01-29T09:25:16;38.50;;;31.43;;
6111;SDS011;3086;48.802;9.394;2023-01-29T09:28:38;12.27;;;9.57;;
6111;SDS011;3086;48.802;9.394;2023-01-29T09:31:59;19.07;;;16.20;;
6111;SDS011;3086;48.802;9.394;2023-01-29T09:35:22;14.00;;;10.57;;
6111;SDS011;3086;48.802;9.394;2023-01-29T09:38:44;9.90;;;8.90;;
6111;SDS011;3086;48.802;9.394;2023-01-29T09:42:07;13.70;;;10.77;;
6111;SDS011;3086;48.802;9.394;2023-01-29T09:45:30;14.63;;;8.57;;
6111;SDS011;3086;48.802;9.394;2023-01-29T09:48:55;10.27;;;8.93;;
6111;SDS011;3086;48.802;9.394;2023-01-29T09:52:22;14.97;;;12.80;;
6111;SDS011;3086;48.802;9.394;2023-01-29T09:55:48;17.73;;;10.20;;
6111;SDS011;3086;48.802;9.394;2023-01-29T09:59:11;12.50;;;8.90;;
6111;SDS011;3086;48.802;9.394;2023-01-29T10:02:47;13.77;;;8.67;;
6111;SDS011;3086;48.802;9.394;2023-01-29T10:06:18;9.80;;;8.80;;
6111;SDS011;3086;48.802;9.394;2023-01-29T10:09:52;9.43;;;8.40;;
6111;SDS011;3086;48.802;9.394;2023-01-29T10:13:26;10.37;;;8.23;;
6111;SDS011;3086;48.802;9.394;2023-01-29T10:16:54;11.87;;;9.23;;
6111;SDS011;3086;48.802;9.394;2023-01-29T10:24:20;8.83;;;7.93;;
6111;SDS011;3086;48.802;9.394;2023-01-29T10:27:46;9.80;;;8.40;;
6111;SDS011;3086;48.802;9.394;2023-01-29T10:31:10;11.10;;;9.50;;
6111;SDS011;3086;48.802;9.394;2023-01-29T10:34:34;9.97;;;8.73;;
6111;SDS011;3086;48.802;9.394;2023-01-29T10:38:01;10.40;;;9.17;;
6111;SDS011;3086;48.802;9.394;2023-01-29T10:41:40;11.77;;;10.00;;
6111;SDS011;3086;48.802;9.394;2023-01-29T10:45:11;9.80;;;8.40;;
6111;SDS011;3086;48.802;9.394;2023-01-29T10:48:41;9.63;;;8.63;;
6111;SDS011;3086;48.802;9.394;2023-01-29T10:52:09;10.67;;;9.63;;
6111;SDS011;3086;48.802;9.394;2023-01-29T10:55:42;13.40;;;10.20;;
6111;SDS011;3086;48.802;9.394;2023-01-29T10:59:12;11.77;;;9.37;;
6111;SDS011;3086;48.802;9.394;2023-01-29T11:02:47;13.40;;;9.67;;
6111;SDS011;3086;48.802;9.394;2023-01-29T11:06:11;13.20;;;9.80;;
6111;SDS011;3086;48.802;9.394;2023-01-29T11:09:38;13.10;;;11.63;;
6111;SDS011;3086;48.802;9.394;2023-01-29T11:13:03;12.40;;;9.67;;
6111;SDS011;3086;48.802;9.394;2023-01-29T11:16:25;11.47;;;9.73;;
6111;SDS011;3086;48.802;9.394;2023-01-29T11:19:49;13.47;;;11.73;;
6111;SDS011;3086;48.802;9.394;2023-01-29T11:23:22;18.43;;;14.20;;
6111;SDS011;3086;48.802;9.394;2023-01-29T11:26:47;10.53;;;9.23;;
6111;SDS011;3086;48.802;9.394;2023-01-29T11:30:14;14.67;;;11.43;;
6111;SDS011;3086;48.802;9.394;2023-01-29T11:33:36;11.10;;;9.90;;
6111;SDS011;3086;48.802;9.394;2023-01-29T11:36:59;12.90;;;11.17;;
6111;SDS011;3086;48.802;9.394;2023-01-29T11:40:33;14.57;;;10.33;;
6111;SDS011;3086;48.802;9.394;2023-01-29T11:43:56;12.67;;;10.53;;
6111;SDS011;3086;48.802;9.394;2023-01-29T11:47:19;12.10;;;10.37;;
6111;SDS011;3086;48.802;9.394;2023-01-29T11:50:43;10.53;;;9.53;;
6111;SDS011;3086;48.802;9.394;2023-01-29T11:54:09;10.87;;;9.87;;
6111;SDS011;3086;48.802;9.394;2023-01-29T11:57:36;10.70;;;9.57;;
6111;SDS011;3086;48.802;9.394;2023-01-29T12:00:59;12.40;;;10.30;;
6111;SDS011;3086;48.802;9.394;2023-01-29T12:04:21;12.80;;;9.40;;
6111;SDS011;3086;48.802;9.394;2023-01-29T12:07:45;11.37;;;10.13;;
6111;SDS011;3086;48.802;9.394;2023-01-29T12:11:10;12.07;;;9.90;;
6111;SDS011;3086;48.802;9.394;2023-01-29T12:14:33;11.30;;;9.63;;
6111;SDS011;3086;48.802;9.394;2023-01-29T12:17:59;11.47;;;10.20;;
6111;SDS011;3086;48.802;9.394;2023-01-29T12:21:27;12.00;;;10.10;;
6111;SDS011;3086;48.802;9.394;2023-01-29T12:24:52;10.93;;;9.80;;
6111;SDS011;3086;48.802;9.394;2023-01-29T12:32:02;12.23;;;10.23;;
6111;SDS011;3086;48.802;9.394;2023-01-29T12:35:28;11.53;;;10.27;;
6111;SDS011;3086;48.802;9.394;2023-01-29T12:38:51;11.63;;;10.37;;
6111;SDS011;3086;48.802;9.394;2023-01-29T12:42:14;11.03;;;9.27;;
6111;SDS011;3086;48.802;9.394;2023-01-29T12:45:39;11.90;;;10.30;;
6111;SDS011;3086;48.802;9.394;2023-01-29T12:49:02;11.73;;;10.23;;
6111;SDS011;3086;48.802;9.394;2023-01-29T12:52:30;13.13;;;10.73;;
6111;SDS011;3086;48.802;9.394;2023-01-29T12:55:57;10.50;;;9.40;;
6111;SDS011;3086;48.802;9.394;2023-01-29T12:59:23;12.43;;;10.00;;
6111;SDS011;3086;48.802;9.394;2023-01-29T13:02:51;11.60;;;9.30;;
6111;SDS011;3086;48.802;9.394;2023-01-29T13:06:16;10.67;;;9.17;;
6111;SDS011;3086;48.802;9.394;2023-01-29T13:09:40;10.17;;;9.17;;
6111;SDS011;3086;48.802;9.394;2023-01-29T13:13:04;11.10;;;8.43;;
6111;SDS011;3086;48.802;9.394;2023-01-29T13:16:32;13.03;;;8.57;;
6111;SDS011;3086;48.802;9.394;2023-01-29T13:19:58;10.63;;;9.50;;
6111;SDS011;3086;48.802;9.394;2023-01-29T13:23:24;12.43;;;10.10;;
6111;SDS011;3086;48.802;9.394;2023-01-29T13:26:50;10.67;;;9.40;;
6111;SDS011;3086;48.802;9.394;2023-01-29T13:30:25;15.23;;;11.67;;
6111;SDS011;3086;48.802;9.394;2023-01-29T13:33:51;10.90;;;9.63;;
6111;SDS011;3086;48.802;9.394;2023-01-29T13:37:17;12.97;;;10.23;;
6111;SDS011;3086;48.802;9.394;2023-01-29T13:40:46;10.77;;;9.67;;
6111;SDS011;3086;48.802;9.394;2023-01-29T13:44:17;11.20;;;8.80;;
6111;SDS011;3086;48.802;9.394;2023-01-29T13:47:41;10.93;;;9.17;;
6111;SDS011;3086;48.802;9.394;2023-01-29T13:51:03;10.50;;;9.50;;
6111;SDS011;3086;48.802;9.394;2023-01-29T13:54:35;10.23;;;8.67;;
6111;SDS011;3086;48.802;9.394;2023-01-29T13:57:57;10.00;;;9.00;;
6111;SDS011;3086;48.802;9.394;2023-01-29T14:09:32;11.03;;;9.87;;
6111;SDS011;3086;48.802;9.394;2023-01-29T14:13:25;17.10;;;12.20;;
6111;SDS011;3086;48.802;9.394;2023-01-29T14:16:47;12.60;;;9.07;;
6111;SDS011;3086;48.802;9.394;2023-01-29T14:20:16;10.93;;;9.60;;
6111;SDS011;3086;48.802;9.394;2023-01-29T14:23:39;13.47;;;10.53;;
6111;SDS011;3086;48.802;9.394;2023-01-29T14:27:03;15.37;;;10.17;;
6111;SDS011;3086;48.802;9.394;2023-01-29T14:30:27;12.83;;;11.53;;
6111;SDS011;3086;48.802;9.394;2023-01-29T14:33:50;12.57;;;11.10;;
6111;SDS011;3086;48.802;9.394;2023-01-29T14:37:19;11.37;;;9.50;;
6111;SDS011;3086;48.802;9.394;2023-01-29T14:40:42;13.33;;;11.00;;
6111;SDS011;3086;48.802;9.394;2023-01-29T14:48:15;11.97;;;10.77;;
6111;SDS011;3086;48.802;9.394;2023-01-29T14:51:40;12.67;;;10.33;;
6111;SDS011;3086;48.802;9.394;2023-01-29T14:55:04;16.17;;;11.70;;
6111;SDS011;3086;48.802;9.394;2023-01-29T14:58:32;16.60;;;12.77;;
6111;SDS011;3086;48.802;9.394;2023-01-29T15:01:56;19.63;;;17.70;;
6111;SDS011;3086;48.802;9.394;2023-01-29T15:05:24;13.87;;;11.07;;
6111;SDS011;3086;48.802;9.394;2023-01-29T15:08:51;15.03;;;12.00;;
6111;SDS011;3086;48.802;9.394;2023-01-29T15:12:17;15.83;;;11.10;;
6111;SDS011;3086;48.802;9.394;2023-01-29T15:15:45;13.83;;;11.63;;
6111;SDS011;3086;48.802;9.394;2023-01-29T15:19:11;12.60;;;11.30;;
6111;SDS011;3086;48.802;9.394;2023-01-29T15:22:42;16.40;;;11.70;;
6111;SDS011;3086;48.802;9.394;2023-01-29T15:26:05;14.67;;;11.23;;
6111;SDS011;3086;48.802;9.394;2023-01-29T15:29:28;16.63;;;12.13;;
6111;SDS011;3086;48.802;9.394;2023-01-29T15:32:49;14.23;;;11.57;;
6111;SDS011;3086;48.802;9.394;2023-01-29T15:36:15;14.87;;;10.97;;
6111;SDS011;3086;48.802;9.394;2023-01-29T15:39:42;16.73;;;11.90;;
6111;SDS011;3086;48.802;9.394;2023-01-29T15:43:11;14.67;;;11.13;;
6111;SDS011;3086;48.802;9.394;2023-01-29T15:46:40;14.60;;;11.80;;
6111;SDS011;3086;48.802;9.394;2023-01-29T15:50:02;17.80;;;11.77;;
6111;SDS011;3086;48.802;9.394;2023-01-29T15:53:30;21.37;;;12.93;;
6111;SDS011;3086;48.802;9.394;2023-01-29T15:56:58;14.53;;;11.57;;
6111;SDS011;3086;48.802;9.394;2023-01-29T16:00:21;13.43;;;11.27;;
6111;SDS011;3086;48.802;9.394;2023-01-29T16:03:44;16.10;;;11.13;;
6111;SDS011;3086;48.802;9.394;2023-01-29T16:07:07;14.67;;;11.13;;
6111;SDS011;3086;48.802;9.394;2023-01-29T16:10:30;14.00;;;10.97;;
6111;SDS011;3086;48.802;9.394;2023-01-29T16:13:53;15.17;;;12.17;;
6111;SDS011;3086;48.802;9.394;2023-01-29T16:17:22;14.97;;;11.30;;
6111;SDS011;3086;48.802;9.394;2023-01-29T16:20:45;23.87;;;16.87;;
6111;SDS011;3086;48.802;9.394;2023-01-29T16:24:11;23.03;;;16.70;;
6111;SDS011;3086;48.802;9.394;2023-01-29T16:27:34;22.97;;;14.47;;
6111;SDS011;3086;48.802;9.394;2023-01-29T16:30:58;18.10;;;15.27;;
6111;SDS011;3086;48.802;9.394;2023-01-29T16:34:23;17.67;;;13.13;;
6111;SDS011;3086;48.802;9.394;2023-01-29T16:37:47;18.90;;;12.73;;
6111;SDS011;3086;48.802;9.394;2023-01-29T16:41:13;19.53;;;13.40;;
6111;SDS011;3086;48.802;9.394;2023-01-29T16:44:36;18.67;;;12.90;;
6111;SDS011;3086;48.802;9.394;2023-01-29T16:48:00;20.10;;;14.33;;
6111;SDS011;3086;48.802;9.394;2023-01-29T16:51:23;18.93;;;13.03;;
6111;SDS011;3086;48.802;9.394;2023-01-29T16:54:46;17.67;;;13.50;;
6111;SDS011;3086;48.802;9.394;2023-01-29T16:58:10;21.07;;;15.60;;
6111;SDS011;3086;48.802;9.394;2023-01-29T17:01:33;24.33;;;15.60;;
6111;SDS011;3086;48.802;9.394;2023-01-29T17:04:58;22.83;;;15.43;;
6111;SDS011;3086;48.802;9.394;2023-01-29T17:08:22;24.07;;;15.70;;
6111;SDS011;3086;48.802;9.394;2023-01-29T17:11:45;20.40;;;14.83;;
6111;SDS011;3086;48.802;9.394;2023-01-29T17:15:26;20.10;;;14.13;;
6111;SDS011;3086;48.802;9.394;2023-01-29T17:18:50;25.90;;;14.40;;
6111;SDS011;3086;48.802;9.394;2023-01-29T17:22:13;17.57;;;12.93;;
6111;SDS011;3086;48.802;9.394;2023-01-29T17:25:35;15.97;;;12.33;;
6111;SDS011;3086;48.802;9.394;2023-01-29T17:28:56;17.57;;;13.17;;
6111;SDS011;3086;48.802;9.394;2023-01-29T17:32:18;21.57;;;15.57;;
6111;SDS011;3086;48.802;9.394;2023-01-29T17:35:39;29.53;;;20.33;;
6111;SDS011;3086;48.802;9.394;2023-01-29T17:39:07;30.80;;;19.17;;
6111;SDS011;3086;48.802;9.394;2023-01-29T17:42:32;30.17;;;17.93;;
6111;SDS011;3086;48.802;9.394;2023-01-29T17:45:54;20.80;;;16.43;;
6111;SDS011;3086;48.802;9.394;2023-01-29T17:49:20;22.27;;;16.13;;
6111;SDS011;3086;48.802;9.394;2023-01-29T17:52:43;21.03;;;15.60;;
6111;SDS011;3086;48.802;9.394;2023-01-29T17:56:08;23.37;;;16.50;;
6111;SDS011;3086;48.802;9.394;2023-01-29T17:59:33;22.60;;;15.43;;
6111;SDS011;3086;48.802;9.394;2023-01-29T18:02:55;22.83;;;16.30;;
6111;SDS011;3086;48.802;9.394;2023-01-29T18:06:21;22.20;;;14.83;;
6111;SDS011;3086;48.802;9.394;2023-01-29T18:09:47;20.00;;;14.63;;
6111;SDS011;3086;48.802;9.394;2023-01-29T18:13:10;19.63;;;15.93;;
6111;SDS011;3086;48.802;9.394;2023-01-29T18:16:31;20.27;;;14.03;;
6111;SDS011;3086;48.802;9.394;2023-01-29T18:19:56;34.03;;;16.43;;
6111;SDS011;3086;48.802;9.394;2023-01-29T18:23:18;21.07;;;13.67;;
6111;SDS011;3086;48.802;9.394;2023-01-29T18:26:41;17.63;;;13.33;;
6111;SDS011;3086;48.802;9.394;2023-01-29T18:30:04;19.87;;;14.27;;
6111;SDS011;3086;48.802;9.394;2023-01-29T18:33:26;19.40;;;13.63;;
6111;SDS011;3086;48.802;9.394;2023-01-29T18:36:48;18.90;;;14.17;;
6111;SDS011;3086;48.802;9.394;2023-01-29T18:40:10;19.97;;;14.20;;
6111;SDS011;3086;48.802;9.394;2023-01-29T18:43:32;24.63;;;18.30;;
6111;SDS011;3086;48.802;9.394;2023-01-29T18:46:55;20.27;;;13.10;;
6111;SDS011;3086;48.802;9.394;2023-01-29T18:50:17;20.90;;;15.83;;
6111;SDS011;3086;48.802;9.394;2023-01-29T18:53:38;17.97;;;14.33;;
6111;SDS011;3086;48.802;9.394;2023-01-29T18:57:00;20.47;;;14.60;;
6111;SDS011;3086;48.802;9.394;2023-01-29T19:00:22;21.33;;;15.30;;
6111;SDS011;3086;48.802;9.394;2023-01-29T19:03:45;21.10;;;15.07;;
6111;SDS011;3086;48.802;9.394;2023-01-29T19:07:07;20.93;;;14.70;;
6111;SDS011;3086;48.802;9.394;2023-01-29T19:10:28;22.47;;;16.30;;
6111;SDS011;3086;48.802;9.394;2023-01-29T19:13:50;26.60;;;16.97;;
6111;SDS011;3086;48.802;9.394;2023-01-29T19:17:12;23.80;;;15.27;;
6111;SDS011;3086;48.802;9.394;2023-01-29T19:20:35;26.47;;;17.23;;
6111;SDS011;3086;48.802;9.394;2023-01-29T19:23:59;25.83;;;17.63;;
6111;SDS011;3086;48.802;9.394;2023-01-29T19:27:21;29.87;;;18.37;;
6111;SDS011;3086;48.802;9.394;2023-01-29T19:30:44;26.30;;;17.70;;
6111;SDS011;3086;48.802;9.394;2023-01-29T19:34:06;22.00;;;16.30;;
6111;SDS011;3086;48.802;9.394;2023-01-29T19:37:29;26.73;;;17.40;;
6111;SDS011;3086;48.802;9.394;2023-01-29T19:40:51;28.40;;;18.80;;
6111;SDS011;3086;48.802;9.394;2023-01-29T19:44:14;28.97;;;20.23;;
6111;SDS011;3086;48.802;9.394;2023-01-29T19:47:39;26.63;;;16.50;;
6111;SDS011;3086;48.802;9.394;2023-01-29T19:51:01;29.97;;;19.00;;
6111;SDS011;3086;48.802;9.394;2023-01-29T19:54:27;30.43;;;19.00;;
6111;SDS011;3086;48.802;9.394;2023-01-29T19:57:50;26.77;;;17.43;;
6111;SDS011;3086;48.802;9.394;2023-01-29T20:01:13;27.07;;;16.57;;
6111;SDS011;3086;48.802;9.394;2023-01-29T20:04:35;27.33;;;17.57;;
6111;SDS011;3086;48.802;9.394;2023-01-29T20:07:56;26.27;;;16.00;;
6111;SDS011;3086;48.802;9.394;2023-01-29T20:11:20;30.97;;;17.30;;
6111;SDS011;3086;48.802;9.394;2023-01-29T20:14:42;25.03;;;15.87;;
6111;SDS011;3086;48.802;9.394;2023-01-29T20:18:07;23.00;;;15.40;;
6111;SDS011;3086;48.802;9.394;2023-01-29T20:21:30;25.80;;;15.90;;
6111;SDS011;3086;48.802;9.394;2023-01-29T20:24:52;22.90;;;16.57;;
6111;SDS011;3086;48.802;9.394;2023-01-29T20:28:15;27.53;;;15.93;;
6111;SDS011;3086;48.802;9.394;2023-01-29T20:31:36;25.57;;;17.73;;
6111;SDS011;3086;48.802;9.394;2023-01-29T20:34:58;28.07;;;17.53;;
6111;SDS011;3086;48.802;9.394;2023-01-29T20:38:19;30.33;;;17.63;;
6111;SDS011;3086;48.802;9.394;2023-01-29T20:41:41;22.87;;;16.10;;
6111;SDS011;3086;48.802;9.394;2023-01-29T20:45:04;32.40;;;20.33;;
6111;SDS011;3086;48.802;9.394;2023-01-29T20:48:26;21.00;;;14.67;;
6111;SDS011;3086;48.802;9.394;2023-01-29T20:51:48;19.80;;;13.57;;
6111;SDS011;3086;48.802;9.394;2023-01-29T20:55:10;17.17;;;13.47;;
6111;SDS011;3086;48.802;9.394;2023-01-29T20:58:32;18.17;;;12.30;;
6111;SDS011;3086;48.802;9.394;2023-01-29T21:01:55;19.97;;;13.83;;
6111;SDS011;3086;48.802;9.394;2023-01-29T21:05:16;28.57;;;18.90;;
6111;SDS011;3086;48.802;9.394;2023-01-29T21:08:38;24.17;;;16.73;;